Airfield :
LOGIN :

Register | Disclaimer

   EN    FR    IT 

 










Legend :    VFR   Marginal VFR   IFR   Intensive IFR   Very Intensive IFR
Visi :
Ceiling :
>= 8 km
>= 3000ft
5 to 8 km
1000 to 3000 ft
1500m to 5 km
500 to 1000 ft
800 to 1500m
200 to 500 ft
< 800m
< 200 ft
Symbols :   Thunderstorms  Fog  Heavy snow  Heavy precipitations  Wind > 20 kt
SIGMETs :     Misc.  Thunderstorms  Icing  Turbulence  Mountain Waves  Volcanic Ashes






- Airport Elevation : 1966 ft
- IATA code : SGE


EDGS - Siegerland

CURRENT METAR :
  • 070750Z 28017G28KT 250V310 6000 -RA BKN003 OVC009 13/13 Q1020

EXPIRED METARs :
  • 070720Z 26011KT 3500 BR BKN004 OVC010 13/12 Q1019
  • 070650Z 26013KT 9999 BKN005 OVC011 13/13 Q1019
  • 070620Z 25011KT 9999 BKN005 OVC023 13/12 Q1019
  • 070550Z AUTO 25011KT 9999 // OVC007/// 13/12 Q1019
  • 070520Z AUTO 25010KT 9999 // OVC008/// 12/11 Q1020

TAF TAF EDGS
Valid from the 07 at 07:00 until the 07 at 15:00 UTC


070650Z 0707/0715 24011KT 9999 BKN008
BECMG 0707/0710 30014KT
TEMPO 0707/0711 1400 RADZ BKN004
PROB30
TEMPO 0708/0710 0400 RA FG BKN001
TEMPO 0710/0715 30015G25KT
BECMG 0710/0714 SCT014 BKN020



MET'MAP, your aeronautical weather chart ! - Copyright ORBIFLY December 2007 - Disclaimer

ORBIFLY MET'MAP TEAM :

Programming & Development : Alexandra Zaïnal
Original concept : Baudouin d'Aumeries
Technical & hardware support : Manuel Goepfert
Assistance : Marc-Olivier Méhu




SOURCES & CREDITS :

   NOAA